sensor_id;sensor_type;location;lat;lon;timestamp;temperature;humidity
69595;DHT22;56800;52.142;5.364;2024-02-28T00:00:35;3.70;82.20
69595;DHT22;56800;52.142;5.364;2024-02-28T00:03:03;3.70;82.10
69595;DHT22;56800;52.142;5.364;2024-02-28T00:05:31;3.70;82.20
69595;DHT22;56800;52.142;5.364;2024-02-28T00:07:58;3.70;82.20
69595;DHT22;56800;52.142;5.364;2024-02-28T00:10:25;3.70;82.30
69595;DHT22;56800;52.142;5.364;2024-02-28T00:12:52;3.70;82.20
69595;DHT22;56800;52.142;5.364;2024-02-28T00:15:19;3.70;82.20
69595;DHT22;56800;52.142;5.364;2024-02-28T00:17:51;3.70;82.10
69595;DHT22;56800;52.142;5.364;2024-02-28T00:20:18;3.70;82.10
69595;DHT22;56800;52.142;5.364;2024-02-28T00:22:45;3.60;82.00
69595;DHT22;56800;52.142;5.364;2024-02-28T00:25:12;3.60;82.00
69595;DHT22;56800;52.142;5.364;2024-02-28T00:27:40;3.60;82.00
69595;DHT22;56800;52.142;5.364;2024-02-28T00:30:07;3.60;82.00
69595;DHT22;56800;52.142;5.364;2024-02-28T00:32:36;3.50;81.90
69595;DHT22;56800;52.142;5.364;2024-02-28T00:35:03;3.40;82.00
69595;DHT22;56800;52.142;5.364;2024-02-28T00:37:30;3.40;82.00
69595;DHT22;56800;52.142;5.364;2024-02-28T00:39:58;3.40;82.10
69595;DHT22;56800;52.142;5.364;2024-02-28T00:42:27;3.40;82.00
69595;DHT22;56800;52.142;5.364;2024-02-28T00:44:54;3.30;82.10
69595;DHT22;56800;52.142;5.364;2024-02-28T00:47:21;3.40;82.20
69595;DHT22;56800;52.142;5.364;2024-02-28T00:49:48;3.30;82.20
69595;DHT22;56800;52.142;5.364;2024-02-28T00:52:18;3.30;82.10
69595;DHT22;56800;52.142;5.364;2024-02-28T00:54:46;3.30;82.20
69595;DHT22;56800;52.142;5.364;2024-02-28T00:57:13;3.20;82.10
69595;DHT22;56800;52.142;5.364;2024-02-28T00:59:40;3.20;82.10
69595;DHT22;56800;52.142;5.364;2024-02-28T01:02:07;3.20;82.10
69595;DHT22;56800;52.142;5.364;2024-02-28T01:04:34;3.10;82.20
69595;DHT22;56800;52.142;5.364;2024-02-28T01:07:01;3.10;82.30
69595;DHT22;56800;52.142;5.364;2024-02-28T01:09:28;3.10;82.30
69595;DHT22;56800;52.142;5.364;2024-02-28T01:11:56;3.10;82.30
69595;DHT22;56800;52.142;5.364;2024-02-28T01:14:22;3.00;82.30
69595;DHT22;56800;52.142;5.364;2024-02-28T01:16:49;3.10;82.40
69595;DHT22;56800;52.142;5.364;2024-02-28T01:19:16;3.10;82.40
69595;DHT22;56800;52.142;5.364;2024-02-28T01:21:43;3.00;82.50
69595;DHT22;56800;52.142;5.364;2024-02-28T01:24:10;3.00;82.50
69595;DHT22;56800;52.142;5.364;2024-02-28T01:26:37;3.00;82.60
69595;DHT22;56800;52.142;5.364;2024-02-28T01:29:04;3.00;82.60
69595;DHT22;56800;52.142;5.364;2024-02-28T01:31:31;3.00;82.60
69595;DHT22;56800;52.142;5.364;2024-02-28T01:33:58;3.00;82.60
69595;DHT22;56800;52.142;5.364;2024-02-28T01:36:25;3.00;82.60
69595;DHT22;56800;52.142;5.364;2024-02-28T01:38:53;3.00;82.60
69595;DHT22;56800;52.142;5.364;2024-02-28T01:41:20;2.90;82.60
69595;DHT22;56800;52.142;5.364;2024-02-28T01:43:50;2.90;82.60
69595;DHT22;56800;52.142;5.364;2024-02-28T01:46:28;2.90;82.50
69595;DHT22;56800;52.142;5.364;2024-02-28T01:48:55;2.90;82.60
69595;DHT22;56800;52.142;5.364;2024-02-28T01:51:25;2.80;82.40
69595;DHT22;56800;52.142;5.364;2024-02-28T01:53:55;2.80;82.40
69595;DHT22;56800;52.142;5.364;2024-02-28T01:56:25;2.70;82.40
69595;DHT22;56800;52.142;5.364;2024-02-28T01:58:52;2.60;82.40
69595;DHT22;56800;52.142;5.364;2024-02-28T02:01:20;2.60;82.40
69595;DHT22;56800;52.142;5.364;2024-02-28T02:03:47;2.50;82.50
69595;DHT22;56800;52.142;5.364;2024-02-28T02:06:15;2.50;82.60
69595;DHT22;56800;52.142;5.364;2024-02-28T02:08:42;2.50;82.60
69595;DHT22;56800;52.142;5.364;2024-02-28T02:11:12;2.40;82.50
69595;DHT22;56800;52.142;5.364;2024-02-28T02:13:51;2.40;82.50
69595;DHT22;56800;52.142;5.364;2024-02-28T02:16:19;2.40;82.50
69595;DHT22;56800;52.142;5.364;2024-02-28T02:18:49;2.40;82.50
69595;DHT22;56800;52.142;5.364;2024-02-28T02:21:20;2.30;82.60
69595;DHT22;56800;52.142;5.364;2024-02-28T02:23:49;2.30;82.70
69595;DHT22;56800;52.142;5.364;2024-02-28T02:26:16;2.30;82.80
69595;DHT22;56800;52.142;5.364;2024-02-28T02:28:43;2.30;82.90
69595;DHT22;56800;52.142;5.364;2024-02-28T02:31:13;2.30;83.00
69595;DHT22;56800;52.142;5.364;2024-02-28T02:33:44;2.30;83.10
69595;DHT22;56800;52.142;5.364;2024-02-28T02:36:14;2.40;83.20
69595;DHT22;56800;52.142;5.364;2024-02-28T02:38:41;2.40;83.30
69595;DHT22;56800;52.142;5.364;2024-02-28T02:41:10;2.50;83.30
69595;DHT22;56800;52.142;5.364;2024-02-28T02:43:39;2.50;83.40
69595;DHT22;56800;52.142;5.364;2024-02-28T02:46:13;2.50;83.40
69595;DHT22;56800;52.142;5.364;2024-02-28T02:48:42;2.60;83.50
69595;DHT22;56800;52.142;5.364;2024-02-28T02:51:12;2.60;83.60
69595;DHT22;56800;52.142;5.364;2024-02-28T02:53:44;2.70;83.80
69595;DHT22;56800;52.142;5.364;2024-02-28T02:56:14;2.80;83.90
69595;DHT22;56800;52.142;5.364;2024-02-28T02:58:41;2.80;83.80
69595;DHT22;56800;52.142;5.364;2024-02-28T03:01:08;2.90;83.70
69595;DHT22;56800;52.142;5.364;2024-02-28T03:03:35;2.90;83.70
69595;DHT22;56800;52.142;5.364;2024-02-28T03:06:04;2.90;83.60
69595;DHT22;56800;52.142;5.364;2024-02-28T03:08:37;2.90;83.50
69595;DHT22;56800;52.142;5.364;2024-02-28T03:11:06;2.80;83.30
69595;DHT22;56800;52.142;5.364;2024-02-28T03:13:38;2.80;83.40
69595;DHT22;56800;52.142;5.364;2024-02-28T03:16:10;2.80;83.40
69595;DHT22;56800;52.142;5.364;2024-02-28T03:18:39;2.80;83.50
69595;DHT22;56800;52.142;5.364;2024-02-28T03:21:06;2.80;83.50
69595;DHT22;56800;52.142;5.364;2024-02-28T03:23:37;2.80;83.60
69595;DHT22;56800;52.142;5.364;2024-02-28T03:26:04;2.90;83.70
69595;DHT22;56800;52.142;5.364;2024-02-28T03:28:34;2.80;83.70
69595;DHT22;56800;52.142;5.364;2024-02-28T03:31:03;2.90;83.90
69595;DHT22;56800;52.142;5.364;2024-02-28T03:33:32;2.90;84.10
69595;DHT22;56800;52.142;5.364;2024-02-28T03:35:59;3.00;84.30
69595;DHT22;56800;52.142;5.364;2024-02-28T03:38:29;3.00;84.40
69595;DHT22;56800;52.142;5.364;2024-02-28T03:40:56;3.10;84.50
69595;DHT22;56800;52.142;5.364;2024-02-28T03:43:29;3.20;84.60
69595;DHT22;56800;52.142;5.364;2024-02-28T03:45:56;3.30;84.70
69595;DHT22;56800;52.142;5.364;2024-02-28T03:48:23;3.30;84.70
69595;DHT22;56800;52.142;5.364;2024-02-28T03:50:50;3.30;84.70
69595;DHT22;56800;52.142;5.364;2024-02-28T03:53:17;3.40;84.70
69595;DHT22;56800;52.142;5.364;2024-02-28T03:55:44;3.40;84.70
69595;DHT22;56800;52.142;5.364;2024-02-28T03:58:11;3.50;84.80
69595;DHT22;56800;52.142;5.364;2024-02-28T04:00:41;3.50;84.80
69595;DHT22;56800;52.142;5.364;2024-02-28T04:03:11;3.60;84.80
69595;DHT22;56800;52.142;5.364;2024-02-28T04:05:47;3.70;84.90
69595;DHT22;56800;52.142;5.364;2024-02-28T04:08:22;3.70;84.90
69595;DHT22;56800;52.142;5.364;2024-02-28T04:10:49;3.80;85.00
69595;DHT22;56800;52.142;5.364;2024-02-28T04:13:20;3.80;85.00
69595;DHT22;56800;52.142;5.364;2024-02-28T04:15:49;3.90;85.00
69595;DHT22;56800;52.142;5.364;2024-02-28T04:18:17;3.90;85.00
69595;DHT22;56800;52.142;5.364;2024-02-28T04:20:44;4.00;85.00
69595;DHT22;56800;52.142;5.364;2024-02-28T04:23:11;4.00;85.00
69595;DHT22;56800;52.142;5.364;2024-02-28T04:25:38;4.10;85.00
69595;DHT22;56800;52.142;5.364;2024-02-28T04:28:13;4.10;85.10
69595;DHT22;56800;52.142;5.364;2024-02-28T04:30:43;4.10;85.00
69595;DHT22;56800;52.142;5.364;2024-02-28T04:33:11;4.20;85.10
69595;DHT22;56800;52.142;5.364;2024-02-28T04:35:38;4.30;85.10
69595;DHT22;56800;52.142;5.364;2024-02-28T04:38:06;4.30;85.10
69595;DHT22;56800;52.142;5.364;2024-02-28T04:40:34;4.30;85.20
69595;DHT22;56800;52.142;5.364;2024-02-28T04:43:02;4.30;85.10
69595;DHT22;56800;52.142;5.364;2024-02-28T04:45:32;4.40;85.30
69595;DHT22;56800;52.142;5.364;2024-02-28T04:47:59;4.40;85.20
69595;DHT22;56800;52.142;5.364;2024-02-28T04:50:26;4.50;85.10
69595;DHT22;56800;52.142;5.364;2024-02-28T04:52:55;4.50;85.10
69595;DHT22;56800;52.142;5.364;2024-02-28T04:55:22;4.60;85.10
69595;DHT22;56800;52.142;5.364;2024-02-28T04:57:52;4.60;85.10
69595;DHT22;56800;52.142;5.364;2024-02-28T05:00:19;4.60;85.20
69595;DHT22;56800;52.142;5.364;2024-02-28T05:02:51;4.60;85.10
69595;DHT22;56800;52.142;5.364;2024-02-28T05:05:20;4.70;85.00
69595;DHT22;56800;52.142;5.364;2024-02-28T05:07:50;4.70;85.00
69595;DHT22;56800;52.142;5.364;2024-02-28T05:10:18;4.70;85.00
69595;DHT22;56800;52.142;5.364;2024-02-28T05:12:47;4.80;84.90
69595;DHT22;56800;52.142;5.364;2024-02-28T05:15:17;4.80;84.80
69595;DHT22;56800;52.142;5.364;2024-02-28T05:17:47;4.80;84.80
69595;DHT22;56800;52.142;5.364;2024-02-28T05:20:27;4.80;84.70
69595;DHT22;56800;52.142;5.364;2024-02-28T05:22:57;4.90;84.80
69595;DHT22;56800;52.142;5.364;2024-02-28T05:25:24;4.90;84.70
69595;DHT22;56800;52.142;5.364;2024-02-28T05:27:51;4.90;84.60
69595;DHT22;56800;52.142;5.364;2024-02-28T05:30:18;4.90;84.60
69595;DHT22;56800;52.142;5.364;2024-02-28T05:32:48;4.90;84.60
69595;DHT22;56800;52.142;5.364;2024-02-28T05:35:18;4.90;84.50
69595;DHT22;56800;52.142;5.364;2024-02-28T05:37:45;4.90;84.50
69595;DHT22;56800;52.142;5.364;2024-02-28T05:40:15;4.90;84.50
69595;DHT22;56800;52.142;5.364;2024-02-28T05:42:44;4.90;84.50
69595;DHT22;56800;52.142;5.364;2024-02-28T05:45:11;4.90;84.40
69595;DHT22;56800;52.142;5.364;2024-02-28T05:47:43;4.90;84.30
69595;DHT22;56800;52.142;5.364;2024-02-28T05:50:13;4.90;84.40
69595;DHT22;56800;52.142;5.364;2024-02-28T05:52:45;4.90;84.40
69595;DHT22;56800;52.142;5.364;2024-02-28T05:55:31;5.00;84.40
69595;DHT22;56800;52.142;5.364;2024-02-28T05:58:45;5.00;84.30
69595;DHT22;56800;52.142;5.364;2024-02-28T06:01:21;5.00;84.30
69595;DHT22;56800;52.142;5.364;2024-02-28T06:04:05;5.00;84.30
69595;DHT22;56800;52.142;5.364;2024-02-28T06:06:46;4.90;84.20
69595;DHT22;56800;52.142;5.364;2024-02-28T06:09:33;5.00;84.30
69595;DHT22;56800;52.142;5.364;2024-02-28T06:12:24;5.00;84.20
69595;DHT22;56800;52.142;5.364;2024-02-28T06:15:06;5.00;84.10
69595;DHT22;56800;52.142;5.364;2024-02-28T06:17:59;5.00;84.20
69595;DHT22;56800;52.142;5.364;2024-02-28T06:20:53;5.00;84.20
69595;DHT22;56800;52.142;5.364;2024-02-28T06:23:23;5.00;84.20
69595;DHT22;56800;52.142;5.364;2024-02-28T06:25:59;5.00;84.20
69595;DHT22;56800;52.142;5.364;2024-02-28T06:28:26;5.00;84.20
69595;DHT22;56800;52.142;5.364;2024-02-28T06:30:53;5.00;84.20
69595;DHT22;56800;52.142;5.364;2024-02-28T06:33:28;5.00;84.30
69595;DHT22;56800;52.142;5.364;2024-02-28T06:35:55;5.00;84.30
69595;DHT22;56800;52.142;5.364;2024-02-28T06:38:29;5.00;84.30
69595;DHT22;56800;52.142;5.364;2024-02-28T06:40:57;5.00;84.30
69595;DHT22;56800;52.142;5.364;2024-02-28T06:43:28;5.00;84.40
69595;DHT22;56800;52.142;5.364;2024-02-28T06:45:58;5.10;84.30
69595;DHT22;56800;52.142;5.364;2024-02-28T06:48:25;5.10;84.40
69595;DHT22;56800;52.142;5.364;2024-02-28T06:50:57;5.10;84.40
69595;DHT22;56800;52.142;5.364;2024-02-28T06:53:27;5.10;84.50
69595;DHT22;56800;52.142;5.364;2024-02-28T06:55:58;5.10;84.40
69595;DHT22;56800;52.142;5.364;2024-02-28T06:58:25;5.10;84.50
69595;DHT22;56800;52.142;5.364;2024-02-28T07:00:53;5.10;84.50
69595;DHT22;56800;52.142;5.364;2024-02-28T07:03:29;5.20;84.60
69595;DHT22;56800;52.142;5.364;2024-02-28T07:05:58;5.20;84.60
69595;DHT22;56800;52.142;5.364;2024-02-28T07:08:27;5.20;84.60
69595;DHT22;56800;52.142;5.364;2024-02-28T07:10:58;5.30;84.60
69595;DHT22;56800;52.142;5.364;2024-02-28T07:13:28;5.30;84.70
69595;DHT22;56800;52.142;5.364;2024-02-28T07:15:57;5.30;84.70
69595;DHT22;56800;52.142;5.364;2024-02-28T07:18:39;5.30;84.60
69595;DHT22;56800;52.142;5.364;2024-02-28T07:21:15;5.30;84.60
69595;DHT22;56800;52.142;5.364;2024-02-28T07:23:45;5.40;84.60
69595;DHT22;56800;52.142;5.364;2024-02-28T07:26:29;5.30;84.70
69595;DHT22;56800;52.142;5.364;2024-02-28T07:29:05;5.30;84.70
69595;DHT22;56800;52.142;5.364;2024-02-28T07:31:39;5.40;84.70
69595;DHT22;56800;52.142;5.364;2024-02-28T07:34:09;5.40;84.80
69595;DHT22;56800;52.142;5.364;2024-02-28T07:36:48;5.40;84.80
69595;DHT22;56800;52.142;5.364;2024-02-28T07:39:45;5.40;84.80
69595;DHT22;56800;52.142;5.364;2024-02-28T07:42:19;5.40;84.80
69595;DHT22;56800;52.142;5.364;2024-02-28T07:45:03;5.40;84.80
69595;DHT22;56800;52.142;5.364;2024-02-28T07:47:37;5.40;84.90
69595;DHT22;56800;52.142;5.364;2024-02-28T07:50:07;5.50;84.90
69595;DHT22;56800;52.142;5.364;2024-02-28T07:52:42;5.50;85.00
69595;DHT22;56800;52.142;5.364;2024-02-28T07:55:16;5.50;85.10
69595;DHT22;56800;52.142;5.364;2024-02-28T07:57:55;5.50;85.00
69595;DHT22;56800;52.142;5.364;2024-02-28T08:00:23;5.50;84.90
69595;DHT22;56800;52.142;5.364;2024-02-28T08:02:55;5.60;84.90
69595;DHT22;56800;52.142;5.364;2024-02-28T08:05:27;5.60;84.90
69595;DHT22;56800;52.142;5.364;2024-02-28T08:08:08;5.60;85.00
69595;DHT22;56800;52.142;5.364;2024-02-28T08:10:36;5.60;85.10
69595;DHT22;56800;52.142;5.364;2024-02-28T08:13:09;5.60;85.00
69595;DHT22;56800;52.142;5.364;2024-02-28T08:15:39;5.60;85.00
69595;DHT22;56800;52.142;5.364;2024-02-28T08:18:10;5.70;85.10
69595;DHT22;56800;52.142;5.364;2024-02-28T08:20:43;5.70;85.20
69595;DHT22;56800;52.142;5.364;2024-02-28T08:23:10;5.70;85.20
69595;DHT22;56800;52.142;5.364;2024-02-28T08:25:39;5.70;85.20
69595;DHT22;56800;52.142;5.364;2024-02-28T08:28:07;5.80;85.30
69595;DHT22;56800;52.142;5.364;2024-02-28T08:30:37;5.80;85.30
69595;DHT22;56800;52.142;5.364;2024-02-28T08:33:06;5.90;85.30
69595;DHT22;56800;52.142;5.364;2024-02-28T08:35:35;5.90;85.30
69595;DHT22;56800;52.142;5.364;2024-02-28T08:38:02;6.00;85.30
69595;DHT22;56800;52.142;5.364;2024-02-28T08:40:33;5.90;85.30
69595;DHT22;56800;52.142;5.364;2024-02-28T08:43:00;6.00;85.40
69595;DHT22;56800;52.142;5.364;2024-02-28T08:45:27;6.10;85.50
69595;DHT22;56800;52.142;5.364;2024-02-28T08:47:57;6.10;85.40
69595;DHT22;56800;52.142;5.364;2024-02-28T08:50:31;6.20;85.40
69595;DHT22;56800;52.142;5.364;2024-02-28T08:52:58;6.20;85.30
69595;DHT22;56800;52.142;5.364;2024-02-28T08:55:25;6.30;85.30
69595;DHT22;56800;52.142;5.364;2024-02-28T08:57:55;6.30;85.40
69595;DHT22;56800;52.142;5.364;2024-02-28T09:00:25;6.30;85.40
69595;DHT22;56800;52.142;5.364;2024-02-28T09:02:52;6.40;85.60
69595;DHT22;56800;52.142;5.364;2024-02-28T09:05:21;6.50;85.60
69595;DHT22;56800;52.142;5.364;2024-02-28T09:07:49;6.60;85.50
69595;DHT22;56800;52.142;5.364;2024-02-28T09:10:18;6.70;85.50
69595;DHT22;56800;52.142;5.364;2024-02-28T09:12:51;6.70;85.30
69595;DHT22;56800;52.142;5.364;2024-02-28T09:15:19;6.80;85.10
69595;DHT22;56800;52.142;5.364;2024-02-28T09:17:48;6.80;85.00
69595;DHT22;56800;52.142;5.364;2024-02-28T09:20:17;6.90;85.00
69595;DHT22;56800;52.142;5.364;2024-02-28T09:22:44;6.90;85.00
69595;DHT22;56800;52.142;5.364;2024-02-28T09:25:14;7.00;85.00
69595;DHT22;56800;52.142;5.364;2024-02-28T09:27:45;7.10;85.10
69595;DHT22;56800;52.142;5.364;2024-02-28T09:30:15;7.20;85.10
69595;DHT22;56800;52.142;5.364;2024-02-28T09:32:47;7.30;84.50
69595;DHT22;56800;52.142;5.364;2024-02-28T09:35:33;7.30;84.20
69595;DHT22;56800;52.142;5.364;2024-02-28T09:38:05;7.40;84.30
69595;DHT22;56800;52.142;5.364;2024-02-28T09:40:39;7.50;84.50
69595;DHT22;56800;52.142;5.364;2024-02-28T09:43:31;7.60;84.70
69595;DHT22;56800;52.142;5.364;2024-02-28T09:46:05;8.00;85.90
69595;DHT22;56800;52.142;5.364;2024-02-28T09:48:38;8.50;84.60
69595;DHT22;56800;52.142;5.364;2024-02-28T09:51:08;8.70;83.10
69595;DHT22;56800;52.142;5.364;2024-02-28T09:53:36;8.80;82.70
69595;DHT22;56800;52.142;5.364;2024-02-28T09:56:07;9.00;82.80
69595;DHT22;56800;52.142;5.364;2024-02-28T09:58:35;9.20;82.30
69595;DHT22;56800;52.142;5.364;2024-02-28T10:01:04;9.20;81.40
69595;DHT22;56800;52.142;5.364;2024-02-28T10:03:39;9.30;81.40
69595;DHT22;56800;52.142;5.364;2024-02-28T10:06:08;9.40;81.40
69595;DHT22;56800;52.142;5.364;2024-02-28T10:08:38;9.40;81.30
69595;DHT22;56800;52.142;5.364;2024-02-28T10:11:09;9.50;81.20
69595;DHT22;56800;52.142;5.364;2024-02-28T10:13:41;9.60;80.50
69595;DHT22;56800;52.142;5.364;2024-02-28T10:16:08;9.50;80.00
69595;DHT22;56800;52.142;5.364;2024-02-28T10:18:35;9.50;79.80
69595;DHT22;56800;52.142;5.364;2024-02-28T10:21:06;9.40;80.10
69595;DHT22;56800;52.142;5.364;2024-02-28T10:23:41;9.40;80.20
69595;DHT22;56800;52.142;5.364;2024-02-28T10:26:09;9.30;80.00
69595;DHT22;56800;52.142;5.364;2024-02-28T10:28:40;9.30;80.20
69595;DHT22;56800;52.142;5.364;2024-02-28T10:31:17;9.30;80.10
69595;DHT22;56800;52.142;5.364;2024-02-28T10:33:52;9.30;80.40
69595;DHT22;56800;52.142;5.364;2024-02-28T10:36:20;9.30;80.60
69595;DHT22;56800;52.142;5.364;2024-02-28T10:38:47;9.40;81.10
69595;DHT22;56800;52.142;5.364;2024-02-28T10:41:16;9.50;80.90
69595;DHT22;56800;52.142;5.364;2024-02-28T10:43:44;9.80;81.30
69595;DHT22;56800;52.142;5.364;2024-02-28T10:46:14;10.00;80.60
69595;DHT22;56800;52.142;5.364;2024-02-28T10:49:02;10.20;80.30
69595;DHT22;56800;52.142;5.364;2024-02-28T10:51:34;10.30;79.70
69595;DHT22;56800;52.142;5.364;2024-02-28T10:54:08;10.40;79.20
69595;DHT22;56800;52.142;5.364;2024-02-28T10:56:42;10.50;79.30
69595;DHT22;56800;52.142;5.364;2024-02-28T10:59:10;10.70;79.10
69595;DHT22;56800;52.142;5.364;2024-02-28T11:01:42;10.70;78.10
69595;DHT22;56800;52.142;5.364;2024-02-28T11:04:13;10.80;78.10
69595;DHT22;56800;52.142;5.364;2024-02-28T11:06:54;10.90;77.90
69595;DHT22;56800;52.142;5.364;2024-02-28T11:09:27;11.00;77.20
69595;DHT22;56800;52.142;5.364;2024-02-28T11:11:56;11.00;77.50
69595;DHT22;56800;52.142;5.364;2024-02-28T11:14:25;11.10;77.00
69595;DHT22;56800;52.142;5.364;2024-02-28T11:17:04;11.20;76.80
69595;DHT22;56800;52.142;5.364;2024-02-28T11:19:36;11.20;76.50
69595;DHT22;56800;52.142;5.364;2024-02-28T11:22:05;11.30;76.50
69595;DHT22;56800;52.142;5.364;2024-02-28T11:24:34;11.30;76.10
69595;DHT22;56800;52.142;5.364;2024-02-28T11:27:04;11.20;75.60
69595;DHT22;56800;52.142;5.364;2024-02-28T11:29:33;11.10;75.70
69595;DHT22;56800;52.142;5.364;2024-02-28T11:32:00;11.10;75.80
69595;DHT22;56800;52.142;5.364;2024-02-28T11:34:28;11.00;75.70
69595;DHT22;56800;52.142;5.364;2024-02-28T11:36:55;10.90;76.00
69595;DHT22;56800;52.142;5.364;2024-02-28T11:39:23;10.90;76.20
69595;DHT22;56800;52.142;5.364;2024-02-28T11:41:54;10.80;76.20
69595;DHT22;56800;52.142;5.364;2024-02-28T11:44:22;10.80;76.20
69595;DHT22;56800;52.142;5.364;2024-02-28T11:46:49;10.80;76.30
69595;DHT22;56800;52.142;5.364;2024-02-28T11:49:17;10.80;76.40
69595;DHT22;56800;52.142;5.364;2024-02-28T11:51:44;10.80;76.50
69595;DHT22;56800;52.142;5.364;2024-02-28T11:54:14;10.80;76.50
69595;DHT22;56800;52.142;5.364;2024-02-28T11:56:45;10.80;76.50
69595;DHT22;56800;52.142;5.364;2024-02-28T11:59:12;10.80;76.20
69595;DHT22;56800;52.142;5.364;2024-02-28T12:01:43;10.70;76.30
69595;DHT22;56800;52.142;5.364;2024-02-28T12:04:12;10.60;76.20
69595;DHT22;56800;52.142;5.364;2024-02-28T12:06:42;10.50;76.50
69595;DHT22;56800;52.142;5.364;2024-02-28T12:09:13;10.50;77.00
69595;DHT22;56800;52.142;5.364;2024-02-28T12:11:50;10.50;77.00
69595;DHT22;56800;52.142;5.364;2024-02-28T12:14:17;10.60;77.30
69595;DHT22;56800;52.142;5.364;2024-02-28T12:16:44;10.60;77.20
69595;DHT22;56800;52.142;5.364;2024-02-28T12:19:12;10.70;77.30
69595;DHT22;56800;52.142;5.364;2024-02-28T12:21:42;10.70;77.10
69595;DHT22;56800;52.142;5.364;2024-02-28T12:24:17;10.70;77.00
69595;DHT22;56800;52.142;5.364;2024-02-28T12:26:44;10.70;77.00
69595;DHT22;56800;52.142;5.364;2024-02-28T12:29:11;10.80;77.10
69595;DHT22;56800;52.142;5.364;2024-02-28T12:31:38;10.80;77.00
69595;DHT22;56800;52.142;5.364;2024-02-28T12:34:05;10.80;77.10
69595;DHT22;56800;52.142;5.364;2024-02-28T12:36:33;10.80;76.80
69595;DHT22;56800;52.142;5.364;2024-02-28T12:39:03;10.90;76.80
69595;DHT22;56800;52.142;5.364;2024-02-28T12:41:33;10.90;77.00
69595;DHT22;56800;52.142;5.364;2024-02-28T12:44:00;10.90;77.00
69595;DHT22;56800;52.142;5.364;2024-02-28T12:46:42;11.00;76.90
69595;DHT22;56800;52.142;5.364;2024-02-28T12:49:17;11.00;76.70
69595;DHT22;56800;52.142;5.364;2024-02-28T12:51:46;11.00;76.80
69595;DHT22;56800;52.142;5.364;2024-02-28T12:54:16;11.00;76.70
69595;DHT22;56800;52.142;5.364;2024-02-28T12:56:43;10.90;76.80
69595;DHT22;56800;52.142;5.364;2024-02-28T12:59:15;10.90;76.70
69595;DHT22;56800;52.142;5.364;2024-02-28T13:01:42;10.90;76.70
69595;DHT22;56800;52.142;5.364;2024-02-28T13:04:10;10.90;76.80
69595;DHT22;56800;52.142;5.364;2024-02-28T13:06:38;11.00;76.70
69595;DHT22;56800;52.142;5.364;2024-02-28T13:09:08;10.90;76.60
69595;DHT22;56800;52.142;5.364;2024-02-28T13:11:39;11.00;76.90
69595;DHT22;56800;52.142;5.364;2024-02-28T13:14:09;11.00;76.70
69595;DHT22;56800;52.142;5.364;2024-02-28T13:16:45;11.10;76.60
69595;DHT22;56800;52.142;5.364;2024-02-28T13:19:21;11.10;76.60
69595;DHT22;56800;52.142;5.364;2024-02-28T13:22:00;11.10;76.70
69595;DHT22;56800;52.142;5.364;2024-02-28T13:24:39;11.20;76.60
69595;DHT22;56800;52.142;5.364;2024-02-28T13:27:07;11.30;76.50
69595;DHT22;56800;52.142;5.364;2024-02-28T13:29:39;11.30;77.00
69595;DHT22;56800;52.142;5.364;2024-02-28T13:32:08;11.30;76.00
69595;DHT22;56800;52.142;5.364;2024-02-28T13:34:39;11.30;76.20
69595;DHT22;56800;52.142;5.364;2024-02-28T13:37:15;11.40;76.30
69595;DHT22;56800;52.142;5.364;2024-02-28T13:39:45;11.50;76.00
69595;DHT22;56800;52.142;5.364;2024-02-28T13:42:17;11.50;75.60
69595;DHT22;56800;52.142;5.364;2024-02-28T13:44:47;11.50;75.30
69595;DHT22;56800;52.142;5.364;2024-02-28T13:47:15;11.40;75.30
69595;DHT22;56800;52.142;5.364;2024-02-28T13:49:42;11.40;75.40
69595;DHT22;56800;52.142;5.364;2024-02-28T13:52:09;11.30;75.20
69595;DHT22;56800;52.142;5.364;2024-02-28T13:54:36;11.30;75.30
69595;DHT22;56800;52.142;5.364;2024-02-28T13:57:03;11.30;75.40
69595;DHT22;56800;52.142;5.364;2024-02-28T13:59:34;11.30;75.40
69595;DHT22;56800;52.142;5.364;2024-02-28T14:02:01;11.20;75.10
69595;DHT22;56800;52.142;5.364;2024-02-28T14:04:28;11.10;75.20
69595;DHT22;56800;52.142;5.364;2024-02-28T14:06:55;11.10;75.40
69595;DHT22;56800;52.142;5.364;2024-02-28T14:09:23;11.10;75.60
69595;DHT22;56800;52.142;5.364;2024-02-28T14:11:50;11.00;75.40
69595;DHT22;56800;52.142;5.364;2024-02-28T14:14:17;11.00;75.50
69595;DHT22;56800;52.142;5.364;2024-02-28T14:16:44;11.00;75.70
69595;DHT22;56800;52.142;5.364;2024-02-28T14:19:10;11.00;75.90
69595;DHT22;56800;52.142;5.364;2024-02-28T14:21:37;11.00;76.00
69595;DHT22;56800;52.142;5.364;2024-02-28T14:24:05;11.00;76.00
69595;DHT22;56800;52.142;5.364;2024-02-28T14:26:32;11.00;75.70
69595;DHT22;56800;52.142;5.364;2024-02-28T14:29:00;10.90;75.80
69595;DHT22;56800;52.142;5.364;2024-02-28T14:31:27;10.90;76.00
69595;DHT22;56800;52.142;5.364;2024-02-28T14:33:54;10.90;76.10
69595;DHT22;56800;52.142;5.364;2024-02-28T14:36:24;10.80;76.20
69595;DHT22;56800;52.142;5.364;2024-02-28T14:38:52;10.80;76.20
69595;DHT22;56800;52.142;5.364;2024-02-28T14:41:19;10.80;76.40
69595;DHT22;56800;52.142;5.364;2024-02-28T14:43:46;10.80;76.40
69595;DHT22;56800;52.142;5.364;2024-02-28T14:46:13;10.70;76.40
69595;DHT22;56800;52.142;5.364;2024-02-28T14:48:40;10.70;76.60
69595;DHT22;56800;52.142;5.364;2024-02-28T14:51:08;10.70;76.60
69595;DHT22;56800;52.142;5.364;2024-02-28T14:53:36;10.70;76.40
69595;DHT22;56800;52.142;5.364;2024-02-28T14:56:03;10.70;76.60
69595;DHT22;56800;52.142;5.364;2024-02-28T14:58:31;10.60;76.50
69595;DHT22;56800;52.142;5.364;2024-02-28T15:00:58;10.60;76.50
69595;DHT22;56800;52.142;5.364;2024-02-28T15:03:29;10.60;76.60
69595;DHT22;56800;52.142;5.364;2024-02-28T15:05:56;10.50;76.60
69595;DHT22;56800;52.142;5.364;2024-02-28T15:08:23;10.60;76.70
69595;DHT22;56800;52.142;5.364;2024-02-28T15:10:50;10.50;76.70
69595;DHT22;56800;52.142;5.364;2024-02-28T15:13:19;10.50;76.80
69595;DHT22;56800;52.142;5.364;2024-02-28T15:15:49;10.50;76.90
69595;DHT22;56800;52.142;5.364;2024-02-28T15:18:16;10.50;77.10
69595;DHT22;56800;52.142;5.364;2024-02-28T15:20:43;10.50;77.10
69595;DHT22;56800;52.142;5.364;2024-02-28T15:23:10;10.50;77.20
69595;DHT22;56800;52.142;5.364;2024-02-28T15:25:37;10.50;77.20
69595;DHT22;56800;52.142;5.364;2024-02-28T15:28:04;10.50;77.20
69595;DHT22;56800;52.142;5.364;2024-02-28T15:30:31;10.40;77.10
69595;DHT22;56800;52.142;5.364;2024-02-28T15:32:58;10.40;77.40
69595;DHT22;56800;52.142;5.364;2024-02-28T15:35:25;10.40;77.40
69595;DHT22;56800;52.142;5.364;2024-02-28T15:37:52;10.40;77.40
69595;DHT22;56800;52.142;5.364;2024-02-28T15:40:19;10.30;77.40
69595;DHT22;56800;52.142;5.364;2024-02-28T15:42:48;10.30;77.50
69595;DHT22;56800;52.142;5.364;2024-02-28T15:45:16;10.30;77.60
69595;DHT22;56800;52.142;5.364;2024-02-28T15:47:45;10.20;77.70
69595;DHT22;56800;52.142;5.364;2024-02-28T15:50:12;10.20;77.80
69595;DHT22;56800;52.142;5.364;2024-02-28T15:52:39;10.20;77.80
69595;DHT22;56800;52.142;5.364;2024-02-28T15:55:06;10.20;78.00
69595;DHT22;56800;52.142;5.364;2024-02-28T15:57:34;10.20;78.10